createdAt,value
2018-03-17T00:00:09.111Z,100820.09
2018-03-17T00:02:36.566Z,100826.16
2018-03-17T00:05:04.054Z,100832.58
2018-03-17T00:07:31.569Z,100811.37
2018-03-17T00:09:59.062Z,100812.06
2018-03-17T00:12:26.554Z,100812.90
2018-03-17T00:14:54.123Z,100800.88
2018-03-17T00:17:21.704Z,100819.81
2018-03-17T00:19:49.173Z,100811.45
2018-03-17T00:22:16.758Z,100813.89
2018-03-17T00:24:44.324Z,100819.19
2018-03-17T00:27:11.775Z,100825.05
2018-03-17T00:29:39.378Z,100816.80
2018-03-17T00:32:06.826Z,100808.42
2018-03-17T00:34:34.295Z,100815.05
2018-03-17T00:37:01.790Z,100823.63
2018-03-17T00:39:29.260Z,100828.28
2018-03-17T00:41:56.729Z,100822.97
2018-03-17T00:44:24.222Z,100817.45
2018-03-17T00:46:51.735Z,100806.76
2018-03-17T00:49:19.206Z,100829.34
2018-03-17T00:51:46.749Z,100834.56
2018-03-17T00:54:14.279Z,100809.76
2018-03-17T00:56:41.764Z,100821.59
2018-03-17T00:59:09.246Z,100839.30
2018-03-17T01:01:36.748Z,100826.55
2018-03-17T01:04:04.215Z,100828.91
2018-03-17T01:06:31.698Z,100830.36
2018-03-17T01:08:59.181Z,100824.95
2018-03-17T01:11:26.663Z,100823.83
2018-03-17T01:13:54.222Z,100812.87
2018-03-17T01:16:21.696Z,100817.51
2018-03-17T01:18:49.194Z,100819.87
2018-03-17T01:21:16.662Z,100831.84
2018-03-17T01:23:44.143Z,100837.33
2018-03-17T01:26:11.660Z,100829.56
2018-03-17T01:28:39.127Z,100836.41
2018-03-17T01:31:06.622Z,100820.45
2018-03-17T01:33:34.090Z,100831.51
2018-03-17T01:36:01.592Z,100834.09
2018-03-17T01:38:29.084Z,100822.98
2018-03-17T01:40:56.548Z,100815.52
2018-03-17T01:43:24.022Z,100811.79
2018-03-17T01:45:51.503Z,100813.09
2018-03-17T01:48:19.022Z,100798.61
2018-03-17T01:50:46.485Z,100806.55
2018-03-17T01:53:13.972Z,100803.91
2018-03-17T01:55:41.507Z,100810.03
2018-03-17T01:58:09.062Z,100795.75
2018-03-17T02:00:36.522Z,100797.39
2018-03-17T02:03:04.033Z,100797.09
2018-03-17T02:05:31.526Z,100787.77
2018-03-17T02:07:58.995Z,100788.08
2018-03-17T02:10:26.461Z,100791.76
2018-03-17T02:12:53.947Z,100801.92
2018-03-17T02:15:21.420Z,100777.84
2018-03-17T02:17:48.895Z,100800.01
2018-03-17T02:20:16.395Z,100799.08
2018-03-17T02:22:43.950Z,100798.46
2018-03-17T02:25:11.427Z,100807.01
2018-03-17T02:27:38.922Z,100806.43
2018-03-17T02:30:06.394Z,100802.02
2018-03-17T02:32:35.279Z,100793.78
2018-03-17T02:35:04.026Z,100803.68
2018-03-17T02:37:31.494Z,100803.81
2018-03-17T02:39:59.126Z,100814.95
2018-03-17T02:42:26.632Z,100809.23
2018-03-17T02:44:54.143Z,100824.13
2018-03-17T02:47:21.601Z,100816.76
2018-03-17T02:49:49.107Z,100819.94
2018-03-17T02:52:16.624Z,100818.47
2018-03-17T02:54:44.087Z,100826.48
2018-03-17T02:57:11.559Z,100832.28
2018-03-17T02:59:39.029Z,100841.23
2018-03-17T03:02:06.522Z,100840.91
2018-03-17T03:04:33.986Z,100848.36
2018-03-17T03:07:01.560Z,100844.77
2018-03-17T03:09:29.046Z,100850.10
2018-03-17T03:11:56.582Z,100841.59
2018-03-17T03:14:24.133Z,100861.80
2018-03-17T03:16:51.710Z,100851.69
2018-03-17T03:19:19.307Z,100846.90
2018-03-17T03:21:46.810Z,100856.79
2018-03-17T03:24:14.370Z,100850.22
2018-03-17T03:26:41.834Z,100853.20
2018-03-17T03:29:09.290Z,100847.04
2018-03-17T03:31:36.850Z,100854.59
2018-03-17T03:34:04.319Z,100858.03
2018-03-17T03:36:31.859Z,100862.78
2018-03-17T03:38:59.418Z,100852.67
2018-03-17T03:41:26.987Z,100856.91
2018-03-17T03:43:54.453Z,100845.50
2018-03-17T03:46:22.107Z,100858.61
2018-03-17T03:48:49.567Z,100863.63
2018-03-17T03:51:17.028Z,100869.60
2018-03-17T03:53:44.518Z,100864.16
2018-03-17T03:56:12.029Z,100871.98
2018-03-17T03:58:39.591Z,100873.72
2018-03-17T04:01:07.071Z,100873.56
2018-03-17T04:03:34.607Z,100881.42
2018-03-17T04:06:02.110Z,100875.69
2018-03-17T04:08:29.625Z,100873.60
2018-03-17T04:10:57.178Z,100876.33
2018-03-17T04:13:24.645Z,100876.36
2018-03-17T04:15:52.142Z,100890.83
2018-03-17T04:18:19.614Z,100874.17
2018-03-17T04:20:47.330Z,100880.14
2018-03-17T04:23:14.807Z,100866.12
2018-03-17T04:25:42.277Z,100870.20
2018-03-17T04:28:09.774Z,100877.77
2018-03-17T04:30:37.294Z,100883.20
2018-03-17T04:33:04.758Z,100875.49
2018-03-17T04:35:32.254Z,100875.72
2018-03-17T04:37:59.716Z,100892.95
2018-03-17T04:40:27.275Z,100887.13
2018-03-17T04:42:54.870Z,100877.20
2018-03-17T04:45:22.323Z,100886.78
2018-03-17T04:47:49.863Z,100888.13
2018-03-17T04:50:17.371Z,100897.73
2018-03-17T04:52:44.846Z,100878.20
2018-03-17T04:55:12.494Z,100882.13
2018-03-17T04:57:39.994Z,100893.11
2018-03-17T05:00:07.459Z,100889.38
2018-03-17T05:02:34.934Z,100888.26
2018-03-17T05:05:02.439Z,100887.84
2018-03-17T05:07:29.930Z,100898.52
2018-03-17T05:09:57.447Z,100898.31
2018-03-17T05:12:24.914Z,100889.83
2018-03-17T05:14:52.382Z,100906.89
2018-03-17T05:17:19.957Z,100908.63
2018-03-17T05:19:47.430Z,100902.78
2018-03-17T05:22:14.898Z,100899.35
2018-03-17T05:24:42.382Z,100904.34
2018-03-17T05:27:09.890Z,100905.28
2018-03-17T05:29:37.370Z,100903.39
2018-03-17T05:32:04.913Z,100909.02
2018-03-17T05:34:32.379Z,100911.55
2018-03-17T05:36:59.839Z,100908.63
2018-03-17T05:39:27.330Z,100908.20
2018-03-17T05:41:54.791Z,100911.44
2018-03-17T05:44:22.258Z,100909.62
2018-03-17T05:46:49.747Z,100920.53
2018-03-17T05:49:17.242Z,100918.39
2018-03-17T05:51:44.699Z,100931.56
2018-03-17T05:54:12.190Z,100933.61
2018-03-17T05:56:39.662Z,100931.39
2018-03-17T05:59:07.130Z,100928.02
2018-03-17T06:01:34.639Z,100936.85
2018-03-17T06:04:02.201Z,100939.08
2018-03-17T06:06:29.722Z,100935.69
2018-03-17T06:08:57.181Z,100935.91
2018-03-17T06:11:24.645Z,100934.86
2018-03-17T06:13:52.145Z,100936.96
2018-03-17T06:16:19.609Z,100951.19
2018-03-17T06:18:47.106Z,100955.04
2018-03-17T06:21:14.584Z,100937.58
2018-03-17T06:23:42.042Z,100950.13
2018-03-17T06:26:09.530Z,100951.73
2018-03-17T06:28:36.999Z,100944.16
2018-03-17T06:31:04.467Z,100967.38
2018-03-17T06:33:32.057Z,100967.09
2018-03-17T06:35:59.636Z,100971.53
2018-03-17T06:38:27.105Z,100979.15
2018-03-17T06:40:54.636Z,100974.60
2018-03-17T06:43:22.238Z,100974.97
2018-03-17T06:45:49.767Z,100965.89
2018-03-17T06:48:17.256Z,100976.09
2018-03-17T06:50:44.813Z,100985.97
2018-03-17T06:53:12.282Z,100977.43
2018-03-17T06:55:39.776Z,100980.91
2018-03-17T06:58:07.286Z,100985.34
2018-03-17T07:00:34.769Z,100989.58
2018-03-17T07:03:02.388Z,100983.21
2018-03-17T07:05:29.857Z,100989.45
2018-03-17T07:07:57.394Z,100987.95
2018-03-17T07:10:24.889Z,100994.98
2018-03-17T07:12:52.361Z,100992.48
2018-03-17T07:15:19.839Z,100993.89
2018-03-17T07:17:47.333Z,100983.03
2018-03-17T07:20:14.799Z,100987.27
2018-03-17T07:22:42.259Z,100988.70
2018-03-17T07:25:09.768Z,100989.55
2018-03-17T07:27:37.234Z,100985.82
2018-03-17T07:30:04.740Z,100985.90
2018-03-17T07:32:32.246Z,100992.12
2018-03-17T07:34:59.860Z,100987.06
2018-03-17T07:37:27.386Z,100978.24
2018-03-17T07:39:54.873Z,100978.82
2018-03-17T07:42:22.394Z,100985.77
2018-03-17T07:44:49.943Z,100975.44
2018-03-17T07:47:17.403Z,100985.83
2018-03-17T07:49:45.071Z,100982.86
2018-03-17T07:52:12.573Z,100976.36
2018-03-17T07:54:40.101Z,100975.67
2018-03-17T07:57:07.728Z,100983.72
2018-03-17T07:59:35.302Z,100980.08
2018-03-17T08:02:02.865Z,100973.38
2018-03-17T08:04:30.431Z,100981.02
2018-03-17T08:06:57.909Z,100981.86
2018-03-17T08:09:25.390Z,100980.39
2018-03-17T08:11:52.890Z,100973.03
2018-03-17T08:14:20.362Z,100978.12
2018-03-17T08:16:47.914Z,100979.45
2018-03-17T08:19:15.417Z,100970.98
2018-03-17T08:21:42.879Z,100978.20
2018-03-17T08:24:10.346Z,100972.31
2018-03-17T08:26:37.830Z,100973.78
2018-03-17T08:29:05.294Z,100976.52
2018-03-17T08:31:32.772Z,100986.08
2018-03-17T08:34:00.255Z,100974.92
2018-03-17T08:36:27.786Z,100969.62
2018-03-17T08:38:55.336Z,100980.41
2018-03-17T08:41:22.842Z,100978.78
2018-03-17T08:43:50.310Z,100980.20
2018-03-17T08:46:17.803Z,100970.31
2018-03-17T08:48:45.271Z,100989.54
2018-03-17T08:51:12.739Z,100984.02
2018-03-17T08:53:40.226Z,100984.49
2018-03-17T08:56:07.690Z,100986.45
2018-03-17T08:58:35.250Z,100971.91
2018-03-17T09:01:02.779Z,100982.16
2018-03-17T09:03:30.324Z,100982.73
2018-03-17T09:05:57.819Z,100970.24
2018-03-17T09:08:25.278Z,100949.52
2018-03-17T09:10:52.746Z,100970.39
2018-03-17T09:13:20.238Z,100972.87
2018-03-17T09:15:47.709Z,100959.03
2018-03-17T09:18:15.166Z,100957.56
2018-03-17T09:20:42.674Z,100952.66
2018-03-17T09:23:10.128Z,100952.70
2018-03-17T09:25:37.594Z,100951.78
2018-03-17T09:28:05.076Z,100948.37
2018-03-17T09:30:32.603Z,100943.52
2018-03-17T09:33:00.052Z,100946.25
2018-03-17T09:35:27.527Z,100951.27
2018-03-17T09:37:55.027Z,100929.19
2018-03-17T09:40:22.588Z,100940.02
2018-03-17T09:42:50.059Z,100945.16
2018-03-17T09:45:17.560Z,100947.38
2018-03-17T09:47:45.023Z,100943.66
2018-03-17T09:50:12.513Z,100953.47
2018-03-17T09:52:39.990Z,100936.41
2018-03-17T09:55:07.447Z,100948.05
2018-03-17T09:57:35.014Z,100947.27
2018-03-17T10:00:02.484Z,100943.73
2018-03-17T10:02:29.950Z,100940.22
2018-03-17T10:04:57.510Z,100949.77
2018-03-17T10:07:24.985Z,100944.91
2018-03-17T10:09:52.596Z,100949.34
2018-03-17T10:12:20.096Z,100951.78
2018-03-17T10:14:47.650Z,100946.00
2018-03-17T10:17:15.110Z,100941.22
2018-03-17T10:19:42.671Z,100961.97
2018-03-17T10:22:10.181Z,100947.45
2018-03-17T10:24:37.648Z,100941.09
2018-03-17T10:27:05.118Z,100940.97
2018-03-17T10:29:32.609Z,100943.03
2018-03-17T10:32:00.091Z,100938.91
2018-03-17T10:34:27.566Z,100941.73
2018-03-17T10:36:55.022Z,100939.82
2018-03-17T10:39:22.479Z,100932.14
2018-03-17T10:41:49.991Z,100931.94
2018-03-17T10:44:17.439Z,100912.03
2018-03-17T10:46:44.967Z,100925.80
2018-03-17T10:49:12.502Z,100923.27
2018-03-17T10:51:39.974Z,100923.20
2018-03-17T10:54:07.530Z,100914.48
2018-03-17T10:56:35.014Z,100920.53
2018-03-17T10:59:02.496Z,100920.49
2018-03-17T11:01:29.980Z,100927.74
2018-03-17T11:03:57.485Z,100921.16
2018-03-17T11:06:24.970Z,100918.30
2018-03-17T11:08:52.446Z,100930.39
2018-03-17T11:11:20.778Z,100919.84
2018-03-17T11:13:48.271Z,100916.42
2018-03-17T11:16:15.739Z,100932.34
2018-03-17T11:18:43.241Z,100913.78
2018-03-17T11:21:10.730Z,100914.39
2018-03-17T11:23:38.251Z,100916.92
2018-03-17T11:26:05.714Z,100895.19
2018-03-17T11:28:33.212Z,100902.78
2018-03-17T11:31:00.671Z,100906.88
2018-03-17T11:33:28.193Z,100909.41
2018-03-17T11:35:55.875Z,100905.06
2018-03-17T11:38:23.351Z,100907.53
2018-03-17T11:40:50.814Z,100913.95
2018-03-17T11:43:18.322Z,100886.14
2018-03-17T11:45:45.794Z,100914.09
2018-03-17T11:48:13.299Z,100908.89
2018-03-17T11:50:40.746Z,100905.34
2018-03-17T11:53:08.227Z,100912.47
2018-03-17T11:55:35.730Z,100899.42
2018-03-17T11:58:03.187Z,100879.13
2018-03-17T12:00:30.776Z,100893.08
2018-03-17T12:02:58.274Z,100896.33
2018-03-17T12:05:25.792Z,100889.38
2018-03-17T12:07:53.278Z,100891.56
2018-03-17T12:10:20.740Z,100891.63
2018-03-17T12:12:48.204Z,100893.38
2018-03-17T12:15:15.686Z,100882.17
2018-03-17T12:17:43.161Z,100889.53
2018-03-17T12:20:10.638Z,100865.81
2018-03-17T12:22:38.175Z,100887.11
2018-03-17T12:25:05.965Z,100879.67
2018-03-17T12:27:33.665Z,100883.20
2018-03-17T12:30:01.131Z,100877.81
2018-03-17T12:32:28.613Z,100876.03
2018-03-17T12:34:56.177Z,100889.96
2018-03-17T12:37:23.631Z,100868.38
2018-03-17T12:39:51.090Z,100854.58
2018-03-17T12:42:18.647Z,100868.97
2018-03-17T12:44:46.103Z,100859.25
2018-03-17T12:47:13.667Z,100867.14
2018-03-17T12:49:41.122Z,100857.39
2018-03-17T12:52:08.581Z,100858.80
2018-03-17T12:54:36.076Z,100857.02
2018-03-17T12:57:03.567Z,100847.57
2018-03-17T12:59:31.033Z,100837.08
2018-03-17T13:01:58.495Z,100844.45
2018-03-17T13:04:25.992Z,100855.16
2018-03-17T13:06:54.051Z,100844.73
2018-03-17T13:09:21.862Z,100845.17
2018-03-17T13:11:49.377Z,100842.66
2018-03-17T13:14:17.055Z,100835.16
2018-03-17T13:16:44.582Z,100838.66
2018-03-17T13:19:24.028Z,100838.59
2018-03-17T13:21:51.575Z,100834.55
2018-03-17T13:24:19.042Z,100824.60
2018-03-17T13:26:58.515Z,100839.28
2018-03-17T13:29:26.142Z,100835.98
2018-03-17T13:31:53.590Z,100840.53
2018-03-17T13:34:21.043Z,100829.92
2018-03-17T13:39:49.426Z,100831.80
2018-03-17T13:42:17.028Z,100834.66
2018-03-17T13:44:44.506Z,100841.03
2018-03-17T13:47:11.999Z,100839.05
2018-03-17T13:49:39.479Z,100829.23
2018-03-17T13:52:06.946Z,100854.66
2018-03-17T13:54:34.502Z,100843.33
2018-03-17T13:57:01.999Z,100858.97
2018-03-17T13:59:29.474Z,100848.40
2018-03-17T14:01:56.948Z,100845.29
2018-03-17T14:04:24.454Z,100853.28
2018-03-17T14:06:51.930Z,100842.96
2018-03-17T14:09:19.377Z,100862.56
2018-03-17T14:11:46.943Z,100853.82
2018-03-17T14:14:14.418Z,100859.45
2018-03-17T14:16:41.943Z,100849.92
2018-03-17T14:19:09.413Z,100873.01
2018-03-17T14:21:36.871Z,100866.98
2018-03-17T14:24:04.358Z,100866.45
2018-03-17T14:26:31.858Z,100857.06
2018-03-17T14:28:59.316Z,100861.95
2018-03-17T14:31:26.870Z,100865.00
2018-03-17T14:33:54.323Z,100866.80
2018-03-17T14:36:21.799Z,100864.29
2018-03-17T14:38:49.402Z,100857.45
2018-03-17T14:41:16.913Z,100878.11
2018-03-17T14:43:44.447Z,100863.20
2018-03-17T14:46:11.931Z,100872.68
2018-03-17T14:48:39.422Z,100868.22
2018-03-17T14:51:06.976Z,100863.59
2018-03-17T14:53:34.550Z,100860.87
2018-03-17T14:56:02.014Z,100867.16
2018-03-17T14:58:29.498Z,100866.34
2018-03-17T15:00:57.050Z,100870.73
2018-03-17T15:03:24.534Z,100863.49
2018-03-17T15:05:52.023Z,100857.92
2018-03-17T15:08:19.550Z,100860.08
2018-03-17T15:10:47.023Z,100863.52
2018-03-17T15:13:14.523Z,100856.31
2018-03-17T15:15:42.034Z,100855.94
2018-03-17T15:18:09.502Z,100851.06
2018-03-17T15:20:37.053Z,100834.28
2018-03-17T15:23:04.605Z,100840.44
2018-03-17T15:25:32.113Z,100853.41
2018-03-17T15:27:59.599Z,100843.87
2018-03-17T15:30:27.128Z,100850.02
2018-03-17T15:32:54.601Z,100856.15
2018-03-17T15:35:22.078Z,100851.91
2018-03-17T15:37:49.540Z,100846.56
2018-03-17T15:40:17.047Z,100849.17
2018-03-17T15:42:44.586Z,100849.64
2018-03-17T15:45:12.041Z,100866.94
2018-03-17T15:47:39.591Z,100853.89
2018-03-17T15:50:07.046Z,100856.30
2018-03-17T15:52:34.606Z,100860.33
2018-03-17T15:55:02.136Z,100864.45
2018-03-17T15:57:29.587Z,100871.21
2018-03-17T15:59:57.102Z,100867.03
2018-03-17T16:02:24.690Z,100865.03
2018-03-17T16:04:52.247Z,100867.11
2018-03-17T16:07:19.774Z,100864.23
2018-03-17T16:09:47.259Z,100869.41
2018-03-17T16:12:14.798Z,100867.44
2018-03-17T16:14:42.308Z,100866.30
2018-03-17T16:17:09.766Z,100871.70
2018-03-17T16:19:37.279Z,100860.48
2018-03-17T16:22:04.711Z,100874.67
2018-03-17T16:24:32.202Z,100867.28
2018-03-17T16:26:59.662Z,100874.70
2018-03-17T16:29:27.129Z,100882.17
2018-03-17T16:31:54.615Z,100877.42
2018-03-17T16:34:22.100Z,100883.44
2018-03-17T16:36:49.571Z,100891.63
2018-03-17T16:39:17.080Z,100883.75
2018-03-17T16:41:44.522Z,100885.42
2018-03-17T16:44:12.020Z,100897.03
2018-03-17T16:46:39.482Z,100906.62
2018-03-17T16:49:06.962Z,100893.56
2018-03-17T16:51:34.458Z,100894.33
2018-03-17T16:54:01.925Z,100886.16
2018-03-17T16:56:29.398Z,100902.92
2018-03-17T16:58:56.986Z,100907.92
2018-03-17T17:01:24.452Z,100915.89
2018-03-17T17:03:51.995Z,100913.97
2018-03-17T17:06:19.507Z,100902.92
2018-03-17T17:08:46.966Z,100910.61
2018-03-17T17:11:14.525Z,100922.06
2018-03-17T17:13:41.998Z,100915.58
2018-03-17T17:16:09.492Z,100916.73
2018-03-17T17:18:37.066Z,100905.20
2018-03-17T17:21:04.608Z,100922.20
2018-03-17T17:23:32.054Z,100929.34
2018-03-17T17:26:00.876Z,100926.95
2018-03-17T17:28:28.362Z,100936.52
2018-03-17T17:30:55.824Z,100941.13
2018-03-17T17:33:23.378Z,100932.33
2018-03-17T17:35:50.906Z,100935.13
2018-03-17T17:38:18.499Z,100937.18
2018-03-17T17:40:46.018Z,100945.24
2018-03-17T17:43:13.499Z,100941.26
2018-03-17T17:45:41.163Z,100939.72
2018-03-17T17:48:08.650Z,100951.47
2018-03-17T17:50:36.252Z,100943.41
2018-03-17T17:53:03.715Z,100954.97
2018-03-17T17:55:32.090Z,100951.11
2018-03-17T17:57:59.595Z,100957.28
2018-03-17T18:00:27.062Z,100944.05
2018-03-17T18:02:54.529Z,100940.65
2018-03-17T18:05:22.010Z,100949.45
2018-03-17T18:07:49.496Z,100954.14
2018-03-17T18:10:16.981Z,100951.20
2018-03-17T18:12:44.508Z,100948.25
2018-03-17T18:15:11.995Z,100934.02
2018-03-17T18:17:39.460Z,100964.40
2018-03-17T18:20:06.951Z,100968.97
2018-03-17T18:22:34.843Z,100953.16
2018-03-17T18:25:02.418Z,100961.63
2018-03-17T18:27:29.951Z,100969.72
2018-03-17T18:29:57.565Z,100974.48
2018-03-17T18:32:25.031Z,100953.36
2018-03-17T18:34:52.498Z,100976.02
2018-03-17T18:37:19.991Z,100971.62
2018-03-17T18:39:47.471Z,100978.47
2018-03-17T18:42:14.960Z,100973.08
2018-03-17T18:44:42.454Z,100979.51
2018-03-17T18:47:09.940Z,100990.05
2018-03-17T18:49:37.403Z,100981.63
2018-03-17T18:52:04.908Z,100977.40
2018-03-17T18:54:32.373Z,100983.16
2018-03-17T18:56:59.849Z,100984.70
2018-03-17T18:59:27.337Z,100977.19
2018-03-17T19:01:54.822Z,100988.59
2018-03-17T19:04:22.278Z,100982.25
2018-03-17T19:06:49.759Z,100985.16
2018-03-17T19:09:17.241Z,100963.38
2018-03-17T19:11:44.706Z,100982.80
2018-03-17T19:14:12.234Z,100981.05
2018-03-17T19:16:39.710Z,100986.36
2018-03-17T19:19:07.188Z,100985.95
2018-03-17T19:24:25.685Z,101012.57
2018-03-17T19:26:53.179Z,101004.45
2018-03-17T19:29:20.710Z,100999.30
2018-03-17T19:31:48.287Z,100988.52
2018-03-17T19:34:15.766Z,100981.96
2018-03-17T19:36:43.243Z,100997.59
2018-03-17T19:39:10.707Z,101014.52
2018-03-17T19:41:38.202Z,101003.48
2018-03-17T19:44:05.663Z,101009.42
2018-03-17T19:46:33.140Z,101010.80
2018-03-17T19:49:00.623Z,101005.02
2018-03-17T19:51:28.092Z,101005.93
2018-03-17T19:53:55.591Z,101010.66
2018-03-17T19:56:23.096Z,101017.58
2018-03-17T19:58:50.560Z,101011.08
2018-03-17T20:01:18.072Z,101022.88
2018-03-17T20:03:45.547Z,101021.20
2018-03-17T20:06:13.127Z,101018.50
2018-03-17T20:08:40.595Z,101015.84
2018-03-17T20:11:08.119Z,101013.89
2018-03-17T20:13:35.601Z,101023.02
2018-03-17T20:16:03.077Z,101022.27
2018-03-17T20:18:30.564Z,101018.06
2018-03-17T20:20:58.059Z,101041.02
2018-03-17T20:23:25.527Z,101023.32
2018-03-17T20:25:53.006Z,101018.17
2018-03-17T20:28:20.507Z,101028.70
2018-03-17T20:30:48.009Z,101014.89
2018-03-17T20:33:15.727Z,101032.26
2018-03-17T20:35:43.238Z,101039.09
2018-03-17T20:38:10.706Z,101044.48
2018-03-17T20:40:38.210Z,101040.70
2018-03-17T20:43:05.695Z,101031.89
2018-03-17T20:45:33.255Z,101045.84
2018-03-17T20:48:00.734Z,101040.61
2018-03-17T20:50:28.231Z,101043.95
2018-03-17T20:52:55.737Z,101046.23
2018-03-17T20:55:23.195Z,101049.24
2018-03-17T20:57:50.714Z,101038.27
2018-03-17T21:00:18.211Z,101043.51
2018-03-17T21:02:45.783Z,101029.44
2018-03-17T21:05:13.302Z,101045.97
2018-03-17T21:07:41.274Z,101051.05
2018-03-17T21:10:08.783Z,101054.08
2018-03-17T21:12:36.274Z,101042.27
2018-03-17T21:15:03.828Z,101042.41
2018-03-17T21:17:31.350Z,101063.06
2018-03-17T21:19:58.846Z,101067.58
2018-03-17T21:22:26.402Z,101055.50
2018-03-17T21:24:53.893Z,101051.83
2018-03-17T21:27:21.400Z,101061.22
2018-03-17T21:29:49.019Z,101058.65
2018-03-17T21:32:16.466Z,101053.63
2018-03-17T21:34:44.072Z,101048.56
2018-03-17T21:37:11.550Z,101060.64
2018-03-17T21:39:39.046Z,101068.95
2018-03-17T21:42:06.791Z,101059.36
2018-03-17T21:44:34.252Z,101070.66
2018-03-17T21:47:01.788Z,101068.98
2018-03-17T21:49:29.265Z,101062.90
2018-03-17T21:51:56.720Z,101064.08
2018-03-17T21:54:24.247Z,101060.83
2018-03-17T21:56:51.709Z,101063.29
2018-03-17T21:59:19.206Z,101051.09
2018-03-17T22:01:46.707Z,101066.06
2018-03-17T22:04:14.206Z,101064.14
2018-03-17T22:06:41.701Z,101078.42
2018-03-17T22:09:09.303Z,101063.02
2018-03-17T22:11:36.778Z,101073.30
2018-03-17T22:14:04.296Z,101087.70
2018-03-17T22:16:31.769Z,101065.94
2018-03-17T22:18:59.356Z,101056.85
2018-03-17T22:21:26.878Z,101073.28
2018-03-17T22:23:54.407Z,101076.89
2018-03-17T22:26:21.870Z,101077.30
2018-03-17T22:28:49.361Z,101080.75
2018-03-17T22:31:16.833Z,101085.67
2018-03-17T22:33:44.312Z,101082.99
2018-03-17T22:36:11.821Z,101066.38
2018-03-17T22:38:39.363Z,101085.04
2018-03-17T22:41:07.239Z,101079.78
2018-03-17T22:43:34.751Z,101096.81
2018-03-17T22:46:06.318Z,101084.02
2018-03-17T22:48:33.868Z,101099.80
2018-03-17T22:51:01.366Z,101087.77
2018-03-17T22:53:28.857Z,101093.67
2018-03-17T22:55:56.432Z,101091.22
2018-03-17T22:58:23.919Z,101094.13
2018-03-17T23:00:51.440Z,101081.61
2018-03-17T23:03:18.941Z,101092.08
2018-03-17T23:05:46.419Z,101082.17
2018-03-17T23:08:14.005Z,101098.13
2018-03-17T23:10:41.484Z,101098.55
2018-03-17T23:13:08.969Z,101095.07
2018-03-17T23:15:36.609Z,101100.86
2018-03-17T23:18:04.148Z,101101.87
2018-03-17T23:20:31.673Z,101105.73
2018-03-17T23:22:59.303Z,101106.30
2018-03-17T23:25:26.783Z,101111.10
2018-03-17T23:27:54.307Z,101116.17
2018-03-17T23:30:21.863Z,101116.17
2018-03-17T23:32:49.374Z,101105.69
2018-03-17T23:35:16.881Z,101124.00
2018-03-17T23:37:44.459Z,101118.17
2018-03-17T23:40:12.244Z,101109.77
2018-03-17T23:42:39.743Z,101103.94
2018-03-17T23:45:07.211Z,101116.27
2018-03-17T23:47:34.684Z,101121.37
2018-03-17T23:50:02.182Z,101120.47
2018-03-17T23:52:29.662Z,101117.66
2018-03-17T23:54:57.178Z,101118.61
2018-03-17T23:57:24.647Z,101117.36
2018-03-17T23:59:52.125Z,101115.77
